ADDS METAR Data INFO
IDs: Format: Raw Decoded Include TAF

Data at: 0026 UTC 11 Dec 2017

K4V0 110015Z AUTO 00000KT 10SM CLR M04/M14 A3052 RMK AO2 T10361141
K4V0 102355Z AUTO 00000KT 10SM CLR 01/M14 A3051 RMK AO2 T00051140 10052 21044
K4V0 102335Z AUTO 00000KT 10SM CLR 03/M13 A3052 RMK AO2 T00321135
K4V0 102315Z AUTO 00000KT 10SM CLR 05/M13 A3052 RMK AO2 T00491131
K4V0 102255Z AUTO 00000KT 10SM CLR 05/M13 A3052 RMK AO2 T00511130
K4V0 102235Z AUTO 00000KT 10SM CLR 05/M13 A3053 RMK AO2 T00511129
K4V0 102215Z AUTO 00000KT 10SM CLR 05/M13 A3053 RMK AO2 T00501129
K4V0 102155Z AUTO 00000KT 10SM CLR 05/M13 A3053 RMK AO2 T00511130
K4V0 102135Z AUTO 00000KT 10SM CLR 05/M13 A3054 RMK AO2 T00481126
K4V0 102115Z AUTO 00000KT 10SM CLR 04/M13 A3054 RMK AO2 T00401129
K4V0 102055Z AUTO 00000KT 10SM CLR 04/M12 A3054 RMK AO2 T00351125
K4V0 102035Z AUTO 00000KT 10SM CLR 03/M13 A3055 RMK AO2 T00271129
K4V0 102015Z AUTO 00000KT 10SM CLR 02/M13 A3056 RMK AO2 T00211135
K4V0 101955Z AUTO 27003KT 10SM CLR 01/M13 A3058 RMK AO2 T00131133
K4V0 101935Z AUTO 00000KT 10SM CLR 00/M14 A3059 RMK AO2 T00041139
K4V0 101915Z AUTO 00000KT 10SM CLR 00/M14 A3060 RMK AO2 T10011136
K4V0 101855Z AUTO 00000KT 10SM CLR M01/M14 A3062 RMK AO2 T10121140
K4V0 101835Z AUTO 00000KT 10SM CLR M02/M14 A3062 RMK AO2 T10201143
K4V0 101815Z AUTO 00000KT 10SM CLR M03/M13 A3063 RMK AO2 T10301134
K4V0 101755Z AUTO 00000KT 10SM CLR M05/M13 A3064 RMK AO2 T10471135 11047 21169
K4V0 101735Z AUTO 00000KT 10SM CLR M06/M14 A3065 RMK AO2 T10571136
K4V0 101715Z AUTO 00000KT 10SM CLR M07/M14 A3065 RMK AO2 T10681138
K4V0 101655Z AUTO 00000KT 10SM CLR M08/M14 A3065 RMK AO2 T10811143
K4V0 101635Z AUTO 00000KT 10SM CLR M09/M14 A3065 RMK AO2 T10941143
K4V0 101615Z AUTO 07003KT 10SM CLR M10/M14 A3065 RMK AO2 T11001143
K4V0 101555Z AUTO 08004KT 10SM CLR M11/M15 A3064 RMK AO2 T11131153
K4V0 101535Z AUTO 00000KT 10SM CLR M13/M16 A3064 RMK AO2 T11301156
K4V0 101515Z AUTO 00000KT 7SM CLR M15/M17 A3064 RMK AO2 T11511174
K4V0 101455Z AUTO 00000KT 10SM CLR M17/M19 A3064 RMK AO2 T11671186
K4V0 101435Z AUTO 25003KT 10SM CLR M16/M19 A3063 RMK AO2 T11641190
K4V0 101415Z AUTO 00000KT 10SM CLR M16/M18 A3063 RMK AO2 T11571183
K4V0 101355Z AUTO 00000KT 10SM CLR M15/M18 A3062 RMK AO2 T11471176
K4V0 101335Z AUTO 00000KT 10SM CLR M15/M18 A3062 RMK AO2 T11471178
K4V0 101315Z AUTO 10004KT 10SM CLR M15/M17 A3062 RMK AO2 T11511174
K4V0 101255Z AUTO 00000KT 10SM CLR M16/M18 A3061 RMK AO2 T11561179
K4V0 101235Z AUTO 00000KT 10SM CLR M14/M16 A3061 RMK AO2 T11381157
K4V0 101215Z AUTO 00000KT 10SM CLR M15/M17 A3061 RMK AO2 T11531170
K4V0 101155Z AUTO 00000KT 10SM CLR M15/M17 A3061 RMK AO2 T11461171 11101 21157
K4V0 101135Z AUTO 00000KT 10SM CLR M14/M17 A3061 RMK AO2 T11451169
K4V0 101115Z AUTO 00000KT 10SM CLR M15/M17 A3062 RMK AO2 T11491167
K4V0 101055Z AUTO 00000KT 10SM CLR M15/M17 A3061 RMK AO2 T11521173
K4V0 101035Z AUTO 07003KT 10SM CLR M13/M16 A3061 RMK AO2 T11341159
K4V0 101015Z AUTO 00000KT 10SM CLR M13/M16 A3062 RMK AO2 T11311156
K4V0 100955Z AUTO 00000KT 10SM CLR M14/M16 A3062 RMK AO2 T11371165
K4V0 100935Z AUTO 00000KT 10SM CLR M13/M16 A3061 RMK AO2 T11301163
K4V0 100915Z AUTO 00000KT 10SM CLR M13/M16 A3060 RMK AO2 T11301156
K4V0 100855Z AUTO 00000KT 10SM CLR M12/M15 A3060 RMK AO2 T11161154
K4V0 100835Z AUTO 00000KT 10SM CLR M13/M16 A3060 RMK AO2 T11271160
K4V0 100815Z AUTO 08005KT 10SM CLR M12/M15 A3061 RMK AO2 T11241153
K4V0 100755Z AUTO 09004KT 10SM CLR M13/M16 A3061 RMK AO2 T11281156
K4V0 100735Z AUTO 00000KT 10SM CLR M13/M15 A3061 RMK AO2 T11261153
K4V0 100715Z AUTO 00000KT 10SM CLR M10/M14 A3061 RMK AO2 T11011142
K4V0 100655Z AUTO 00000KT 10SM CLR M12/M16 A3060 RMK AO2 T11251162 400591156
K4V0 100635Z AUTO 00000KT 10SM CLR M13/M16 A3060 RMK AO2 T11261156
K4V0 100615Z AUTO 00000KT 10SM CLR M11/M15 A3060 RMK AO2 T11141147
K4V0 100555Z AUTO 10004KT 10SM CLR M11/M15 A3059 RMK AO2 T11141154 10014 21119
K4V0 100535Z AUTO 09003KT 10SM CLR M11/M15 A3059 RMK AO2 T11101154
K4V0 100515Z AUTO 00000KT 10SM CLR M09/M14 A3058 RMK AO2 T10951144
K4V0 100455Z AUTO 00000KT 10SM CLR M10/M15 A3058 RMK AO2 T11021147
K4V0 100435Z AUTO 00000KT 10SM CLR M11/M15 A3058 RMK AO2 T11061153
K4V0 100415Z AUTO 00000KT 10SM CLR M10/M15 A3057 RMK AO2 T10961153
K4V0 100355Z AUTO 00000KT 10SM CLR M10/M15 A3057 RMK AO2 T10991153
K4V0 100335Z AUTO 00000KT 10SM CLR M09/M15 A3057 RMK AO2 T10931149
K4V0 100315Z AUTO 00000KT 10SM CLR M09/M15 A3056 RMK AO2 T10881146
K4V0 100255Z AUTO 00000KT 10SM CLR M08/M15 A3056 RMK AO2 T10801150
K4V0 100235Z AUTO 00000KT 10SM CLR M07/M14 A3055 RMK AO2 T10681143
K4V0 100215Z AUTO 00000KT 10SM CLR M07/M14 A3054 RMK AO2 T10711145
K4V0 100155Z AUTO 00000KT 10SM CLR M05/M13 A3053 RMK AO2 T10541126
K4V0 100135Z AUTO 00000KT 10SM CLR M06/M14 A3052 RMK AO2 T10561138
K4V0 100115Z AUTO 00000KT 10SM CLR M04/M13 A3052 RMK AO2 T10421127
K4V0 100055Z AUTO 00000KT 10SM CLR M06/M14 A3050 RMK AO2 T10611136
K4V0 100035Z AUTO 00000KT 10SM CLR M05/M14 A3050 RMK AO2 T10491141
K4V0 100015Z AUTO 00000KT 10SM CLR M03/M13 A3050 RMK AO2 T10331134
K4V0 092355Z AUTO 00000KT 10SM CLR 02/M13 A3049 RMK AO2 T00151130 10059 21037
K4V0 092335Z AUTO 00000KT 10SM CLR 05/M13 A3049 RMK AO2 T00521126
K4V0 092315Z AUTO 00000KT 10SM CLR 06/M12 A3049 RMK AO2 T00561125
K4V0 092255Z AUTO 00000KT 10SM CLR 06/M12 A3049 RMK AO2 T00591123
K4V0 092235Z AUTO 00000KT 10SM CLR 06/M12 A3049 RMK AO2 T00571119
K4V0 092215Z AUTO 00000KT 10SM CLR 06/M12 A3049 RMK AO2 T00561117
K4V0 092155Z AUTO 00000KT 10SM CLR 05/M12 A3049 RMK AO2 T00541117
K4V0 092135Z AUTO 00000KT 10SM CLR 05/M12 A3049 RMK AO2 T00491118
K4V0 092115Z AUTO 22003KT 10SM CLR 05/M12 A3050 RMK AO2 T00511117
K4V0 092055Z AUTO 21003KT 10SM CLR 04/M12 A3050 RMK AO2 T00441120
K4V0 092035Z AUTO 00000KT 10SM CLR 03/M12 A3051 RMK AO2 T00321123
K4V0 092015Z AUTO 00000KT 10SM CLR 03/M12 A3052 RMK AO2 T00281124
K4V0 091955Z AUTO 00000KT 10SM CLR 02/M12 A3053 RMK AO2 T00201122
K4V0 091935Z AUTO 25003KT 10SM CLR 02/M12 A3054 RMK AO2 T00161116
K4V0 091915Z AUTO 00000KT 10SM CLR 01/M12 A3055 RMK AO2 T00081119
K4V0 091855Z AUTO 00000KT 10SM CLR 00/M12 A3056 RMK AO2 T00001116
K4V0 091835Z AUTO 00000KT 10SM CLR M01/M11 A3058 RMK AO2 T10071111
K4V0 091815Z AUTO 00000KT 10SM CLR M02/M12 A3058 RMK AO2 T10211116
K4V0 091755Z AUTO 00000KT 10SM CLR M04/M12 A3059 RMK AO2 T10381117 11037 21156
K4V0 091735Z AUTO 00000KT 10SM CLR M05/M12 A3059 RMK AO2 T10481120
K4V0 091715Z AUTO 00000KT 10SM CLR M05/M11 A3060 RMK AO2 T10531115
K4V0 091655Z AUTO 00000KT 10SM CLR M07/M12 A3060 RMK AO2 T10691118
K4V0 091635Z AUTO 00000KT 10SM CLR M08/M12 A3060 RMK AO2 T10771122
K4V0 091615Z AUTO 06003KT 10SM CLR M09/M12 A3060 RMK AO2 T10921125
K4V0 091555Z AUTO 00000KT 10SM CLR M10/M13 A3060 RMK AO2 T11051133
K4V0 091535Z AUTO 00000KT 10SM CLR M12/M15 A3059 RMK AO2 T11241147
K4V0 091515Z AUTO 00000KT 10SM CLR M14/M16 A3060 RMK AO2 T11431161
K4V0 091455Z AUTO 00000KT 10SM CLR M15/M17 A3059 RMK AO2 T11531169
K4V0 091435Z AUTO 00000KT 10SM CLR M15/M17 A3058 RMK AO2 T11461166
K4V0 091415Z AUTO 00000KT 10SM CLR M15/M17 A3058 RMK AO2 T11541174
K4V0 091355Z AUTO 00000KT 10SM CLR M15/M17 A3058 RMK AO2 T11481166
K4V0 091335Z AUTO 00000KT 10SM CLR M14/M16 A3057 RMK AO2 T11371157
K4V0 091315Z AUTO 00000KT 10SM CLR M13/M15 A3057 RMK AO2 T11321152
K4V0 091255Z AUTO 00000KT 10SM CLR M13/M15 A3057 RMK AO2 T11311152
K4V0 091235Z AUTO 03003KT 10SM CLR M12/M15 A3056 RMK AO2 T11221149